createdAt,value
2023-03-22T00:01:25.098Z,57.60
2023-03-22T00:11:30.688Z,60.70
2023-03-22T00:21:36.371Z,62.00
2023-03-22T00:31:42.251Z,65.40
2023-03-22T00:41:48.052Z,63.90
2023-03-22T00:51:54.921Z,56.60
2023-03-22T01:02:00.807Z,57.60
2023-03-22T01:12:06.899Z,56.00
2023-03-22T01:22:12.793Z,55.50
2023-03-22T01:32:18.536Z,58.60
2023-03-22T01:42:24.936Z,51.00
2023-03-22T01:52:30.921Z,47.10
2023-03-22T02:02:37.063Z,54.90
2023-03-22T02:12:52.761Z,51.60
2023-03-22T02:23:37.196Z,50.60
2023-03-22T02:34:06.837Z,51.40
2023-03-22T02:44:23.618Z,46.00
2023-03-22T03:04:39.703Z,40.90
2023-03-22T03:14:45.615Z,33.60
2023-03-22T03:24:59.164Z,32.40
2023-03-22T03:35:10.873Z,29.90
2023-03-22T03:45:18.129Z,33.50
2023-03-22T04:05:28.732Z,34.30
2023-03-22T04:15:34.539Z,36.90
2023-03-22T04:25:41.923Z,32.20
2023-03-22T04:35:47.637Z,28.50
2023-03-22T04:45:55.020Z,31.80
2023-03-22T04:56:02.698Z,31.10
2023-03-22T05:06:10.393Z,32.80
2023-03-22T05:16:16.145Z,34.30
2023-03-22T05:26:24.319Z,33.30
2023-03-22T05:36:30.935Z,33.10
2023-03-22T05:46:36.635Z,39.30
2023-03-22T05:56:44.226Z,46.50
2023-03-22T06:06:50.638Z,51.30
2023-03-22T06:16:56.346Z,47.10
2023-03-22T06:27:02.207Z,47.70
2023-03-22T06:37:07.966Z,48.40
2023-03-22T06:47:14.047Z,44.90
2023-03-22T06:57:19.752Z,53.90
2023-03-22T07:07:25.522Z,46.30
2023-03-22T07:17:31.125Z,50.10
2023-03-22T07:27:37.417Z,40.70
2023-03-22T07:37:43.234Z,41.70
2023-03-22T07:47:49.010Z,35.20
2023-03-22T07:57:55.162Z,31.40
2023-03-22T08:08:00.854Z,29.10
2023-03-22T08:18:08.714Z,31.10
2023-03-22T08:38:20.978Z,32.60
2023-03-22T08:48:29.187Z,30.40
2023-03-22T08:58:34.998Z,31.80
2023-03-22T09:08:41.518Z,29.10
2023-03-22T09:18:47.277Z,27.40
2023-03-22T09:28:53.007Z,24.70
2023-03-22T09:38:59.432Z,25.20
2023-03-22T09:49:10.875Z,24.80
2023-03-22T09:59:23.473Z,26.10
2023-03-22T10:09:35.488Z,24.50
2023-03-22T10:19:49.972Z,23.80
2023-03-22T10:30:00.915Z,24.90
2023-03-22T10:40:13.703Z,22.90
2023-03-22T10:50:22.698Z,21.70
2023-03-22T11:00:29.724Z,18.50
2023-03-22T11:10:36.142Z,21.10
2023-03-22T11:20:52.979Z,16.30
2023-03-22T11:31:05.925Z,14.60
2023-03-22T11:41:21.269Z,18.10
2023-03-22T11:51:33.451Z,19.40
2023-03-22T12:01:43.083Z,13.60
2023-03-22T12:11:51.049Z,14.10
2023-03-22T12:21:58.278Z,17.40
2023-03-22T12:32:08.451Z,17.20
2023-03-22T12:42:23.052Z,19.20
2023-03-22T12:52:45.250Z,20.40
2023-03-22T13:02:58.129Z,20.20
2023-03-22T13:13:18.231Z,17.80
2023-03-22T13:23:32.218Z,16.80
2023-03-22T13:33:39.214Z,18.00
2023-03-22T13:43:50.643Z,15.50
2023-03-22T13:54:02.457Z,12.30
2023-03-22T14:04:12.349Z,13.30
2023-03-22T14:14:24.642Z,15.20
